sensor_id;sensor_type;location;lat;lon;timestamp;temperature;humidity
11991;DHT22;6055;52.522;13.446;2022-10-03T00:06:00;11.40;99.90
11991;DHT22;6055;52.522;13.446;2022-10-03T00:11:11;11.40;99.90
11991;DHT22;6055;52.522;13.446;2022-10-03T00:17:01;11.50;99.90
11991;DHT22;6055;52.522;13.446;2022-10-03T00:19:56;11.50;99.90
11991;DHT22;6055;52.522;13.446;2022-10-03T00:22:32;11.60;99.90
11991;DHT22;6055;52.522;13.446;2022-10-03T00:25:24;11.60;99.90
11991;DHT22;6055;52.522;13.446;2022-10-03T00:33:50;11.60;99.90
11991;DHT22;6055;52.522;13.446;2022-10-03T00:39:12;11.50;99.90
11991;DHT22;6055;52.522;13.446;2022-10-03T00:42:24;11.60;99.90
11991;DHT22;6055;52.522;13.446;2022-10-03T00:45:20;11.60;99.90
11991;DHT22;6055;52.522;13.446;2022-10-03T00:50:58;11.60;99.90
11991;DHT22;6055;52.522;13.446;2022-10-03T00:59:22;11.50;99.90
11991;DHT22;6055;52.522;13.446;2022-10-03T01:01:48;11.50;99.90
11991;DHT22;6055;52.522;13.446;2022-10-03T01:04:43;11.50;99.90
11991;DHT22;6055;52.522;13.446;2022-10-03T01:10:22;11.50;99.90
11991;DHT22;6055;52.522;13.446;2022-10-03T01:16:17;11.40;99.90
11991;DHT22;6055;52.522;13.446;2022-10-03T01:18:59;11.40;99.90
11991;DHT22;6055;52.522;13.446;2022-10-03T01:21:36;11.40;99.90
11991;DHT22;6055;52.522;13.446;2022-10-03T01:27:07;11.50;99.90
11991;DHT22;6055;52.522;13.446;2022-10-03T01:32:41;11.50;99.90
11991;DHT22;6055;52.522;13.446;2022-10-03T01:43:13;11.60;99.90
11991;DHT22;6055;52.522;13.446;2022-10-03T01:45:58;11.60;99.90
11991;DHT22;6055;52.522;13.446;2022-10-03T01:48:39;11.60;99.90
11991;DHT22;6055;52.522;13.446;2022-10-03T01:51:18;11.60;99.90
11991;DHT22;6055;52.522;13.446;2022-10-03T01:56:56;11.60;99.90
11991;DHT22;6055;52.522;13.446;2022-10-03T01:59:42;11.60;99.90
11991;DHT22;6055;52.522;13.446;2022-10-03T02:02:27;11.50;99.90
11991;DHT22;6055;52.522;13.446;2022-10-03T02:05:06;11.50;99.90
11991;DHT22;6055;52.522;13.446;2022-10-03T02:07:55;11.50;99.90
11991;DHT22;6055;52.522;13.446;2022-10-03T02:16:19;11.60;99.90
11991;DHT22;6055;52.522;13.446;2022-10-03T02:21:20;11.70;99.90
11991;DHT22;6055;52.522;13.446;2022-10-03T02:23:47;11.70;99.90
11991;DHT22;6055;52.522;13.446;2022-10-03T02:27:09;11.70;99.90
11991;DHT22;6055;52.522;13.446;2022-10-03T02:29:50;11.70;99.90
11991;DHT22;6055;52.522;13.446;2022-10-03T02:32:40;11.70;99.90
11991;DHT22;6055;52.522;13.446;2022-10-03T02:38:11;11.70;99.90
11991;DHT22;6055;52.522;13.446;2022-10-03T02:41:10;11.80;99.90
11991;DHT22;6055;52.522;13.446;2022-10-03T02:44:15;11.80;99.90
11991;DHT22;6055;52.522;13.446;2022-10-03T03:01:45;11.80;99.90
11991;DHT22;6055;52.522;13.446;2022-10-03T03:07:17;11.80;99.90
11991;DHT22;6055;52.522;13.446;2022-10-03T03:10:13;11.80;99.90
11991;DHT22;6055;52.522;13.446;2022-10-03T03:13:16;11.80;99.90
11991;DHT22;6055;52.522;13.446;2022-10-03T03:22:08;11.80;99.90
11991;DHT22;6055;52.522;13.446;2022-10-03T03:30:47;11.80;99.90
11991;DHT22;6055;52.522;13.446;2022-10-03T03:36:25;11.80;99.90
11991;DHT22;6055;52.522;13.446;2022-10-03T03:39:05;11.80;99.90
11991;DHT22;6055;52.522;13.446;2022-10-03T03:42:04;11.80;99.90
11991;DHT22;6055;52.522;13.446;2022-10-03T03:44:49;11.80;99.90
11991;DHT22;6055;52.522;13.446;2022-10-03T03:47:25;11.80;99.90
11991;DHT22;6055;52.522;13.446;2022-10-03T03:50:12;11.80;99.90
11991;DHT22;6055;52.522;13.446;2022-10-03T03:55:50;11.80;99.90
11991;DHT22;6055;52.522;13.446;2022-10-03T03:58:32;11.80;99.90
11991;DHT22;6055;52.522;13.446;2022-10-03T04:01:31;11.80;99.90
11991;DHT22;6055;52.522;13.446;2022-10-03T04:07:00;11.80;99.90
11991;DHT22;6055;52.522;13.446;2022-10-03T04:14:59;11.80;99.90
11991;DHT22;6055;52.522;13.446;2022-10-03T04:26:30;11.80;99.90
11991;DHT22;6055;52.522;13.446;2022-10-03T04:37:17;11.70;99.90
11991;DHT22;6055;52.522;13.446;2022-10-03T04:39:59;11.70;99.90
11991;DHT22;6055;52.522;13.446;2022-10-03T04:42:48;11.70;99.90
11991;DHT22;6055;52.522;13.446;2022-10-03T04:45:34;11.70;99.90
11991;DHT22;6055;52.522;13.446;2022-10-03T04:48:36;11.70;99.90
11991;DHT22;6055;52.522;13.446;2022-10-03T04:54:11;11.70;99.90
11991;DHT22;6055;52.522;13.446;2022-10-03T04:56:47;11.70;99.90
11991;DHT22;6055;52.522;13.446;2022-10-03T04:59:44;11.70;99.90
11991;DHT22;6055;52.522;13.446;2022-10-03T05:02:20;11.70;99.90
11991;DHT22;6055;52.522;13.446;2022-10-03T05:08:00;11.80;99.90
11991;DHT22;6055;52.522;13.446;2022-10-03T05:13:18;11.80;99.90
11991;DHT22;6055;52.522;13.446;2022-10-03T05:18:55;11.80;99.90
11991;DHT22;6055;52.522;13.446;2022-10-03T05:24:46;11.70;99.90
11991;DHT22;6055;52.522;13.446;2022-10-03T05:27:35;11.80;99.90
11991;DHT22;6055;52.522;13.446;2022-10-03T05:30:14;11.70;99.90
11991;DHT22;6055;52.522;13.446;2022-10-03T05:32:53;11.80;99.90
11991;DHT22;6055;52.522;13.446;2022-10-03T05:40:47;11.70;99.90
11991;DHT22;6055;52.522;13.446;2022-10-03T05:47:13;11.80;99.90
11991;DHT22;6055;52.522;13.446;2022-10-03T06:04:39;11.80;99.90
11991;DHT22;6055;52.522;13.446;2022-10-03T06:07:25;11.80;99.90
11991;DHT22;6055;52.522;13.446;2022-10-03T06:10:17;11.80;99.90
11991;DHT22;6055;52.522;13.446;2022-10-03T06:12:48;11.70;99.90
11991;DHT22;6055;52.522;13.446;2022-10-03T06:18:22;11.80;99.90
11991;DHT22;6055;52.522;13.446;2022-10-03T06:21:17;11.80;99.90
11991;DHT22;6055;52.522;13.446;2022-10-03T06:24:18;11.80;99.90
11991;DHT22;6055;52.522;13.446;2022-10-03T06:27:17;11.80;99.90
11991;DHT22;6055;52.522;13.446;2022-10-03T06:32:48;11.90;99.90
11991;DHT22;6055;52.522;13.446;2022-10-03T06:35:31;11.90;99.90
11991;DHT22;6055;52.522;13.446;2022-10-03T06:47:19;12.00;99.90
11991;DHT22;6055;52.522;13.446;2022-10-03T06:50:12;12.10;99.90
11991;DHT22;6055;52.522;13.446;2022-10-03T06:53:17;12.10;99.90
11991;DHT22;6055;52.522;13.446;2022-10-03T06:56:16;12.10;99.90
11991;DHT22;6055;52.522;13.446;2022-10-03T07:11:04;12.20;99.90
11991;DHT22;6055;52.522;13.446;2022-10-03T07:13:59;12.30;99.90
11991;DHT22;6055;52.522;13.446;2022-10-03T07:16:47;12.40;99.90
11991;DHT22;6055;52.522;13.446;2022-10-03T07:22:16;12.40;99.90
11991;DHT22;6055;52.522;13.446;2022-10-03T07:30:24;12.50;99.90
11991;DHT22;6055;52.522;13.446;2022-10-03T07:33:25;12.60;99.90
11991;DHT22;6055;52.522;13.446;2022-10-03T07:39:30;12.60;99.90
11991;DHT22;6055;52.522;13.446;2022-10-03T07:42:23;12.60;99.90
11991;DHT22;6055;52.522;13.446;2022-10-03T08:11:21;12.90;99.90
11991;DHT22;6055;52.522;13.446;2022-10-03T08:14:16;12.90;99.90
11991;DHT22;6055;52.522;13.446;2022-10-03T08:19:49;13.10;99.90
11991;DHT22;6055;52.522;13.446;2022-10-03T08:28:44;13.40;99.90
11991;DHT22;6055;52.522;13.446;2022-10-03T08:46:29;13.40;99.90
11991;DHT22;6055;52.522;13.446;2022-10-03T08:49:39;13.40;99.90
11991;DHT22;6055;52.522;13.446;2022-10-03T08:52:29;13.40;99.90
11991;DHT22;6055;52.522;13.446;2022-10-03T09:01:19;13.50;99.90
11991;DHT22;6055;52.522;13.446;2022-10-03T09:07:05;13.80;99.90
11991;DHT22;6055;52.522;13.446;2022-10-03T09:16:04;13.90;99.90
11991;DHT22;6055;52.522;13.446;2022-10-03T09:25:02;14.30;99.90
11991;DHT22;6055;52.522;13.446;2022-10-03T09:27:42;14.30;99.90
11991;DHT22;6055;52.522;13.446;2022-10-03T09:30:23;14.30;99.90
11991;DHT22;6055;52.522;13.446;2022-10-03T09:33:16;14.30;99.90
11991;DHT22;6055;52.522;13.446;2022-10-03T09:36:10;14.30;99.90
11991;DHT22;6055;52.522;13.446;2022-10-03T09:39:40;14.40;99.90
11991;DHT22;6055;52.522;13.446;2022-10-03T09:47:08;14.60;99.90
11991;DHT22;6055;52.522;13.446;2022-10-03T10:01:29;14.70;99.90
11991;DHT22;6055;52.522;13.446;2022-10-03T10:13:22;14.50;99.90
11991;DHT22;6055;52.522;13.446;2022-10-03T10:21:56;14.60;99.90
11991;DHT22;6055;52.522;13.446;2022-10-03T10:28:09;14.90;99.90
11991;DHT22;6055;52.522;13.446;2022-10-03T10:31:05;15.10;99.90
11991;DHT22;6055;52.522;13.446;2022-10-03T10:34:13;15.30;99.90
11991;DHT22;6055;52.522;13.446;2022-10-03T10:43:14;15.60;99.90
11991;DHT22;6055;52.522;13.446;2022-10-03T10:52:17;15.10;99.90
11991;DHT22;6055;52.522;13.446;2022-10-03T10:55:38;15.40;99.90
11991;DHT22;6055;52.522;13.446;2022-10-03T11:01:38;16.40;99.90
11991;DHT22;6055;52.522;13.446;2022-10-03T11:33:26;16.00;99.90
11991;DHT22;6055;52.522;13.446;2022-10-03T11:39:06;15.80;99.90
11991;DHT22;6055;52.522;13.446;2022-10-03T11:44:26;15.60;99.90
11991;DHT22;6055;52.522;13.446;2022-10-03T11:47:11;15.30;99.90
11991;DHT22;6055;52.522;13.446;2022-10-03T11:50:04;15.40;99.90
11991;DHT22;6055;52.522;13.446;2022-10-03T11:58:29;16.60;99.90
11991;DHT22;6055;52.522;13.446;2022-10-03T12:01:26;16.30;99.90
11991;DHT22;6055;52.522;13.446;2022-10-03T12:12:43;16.80;99.90
11991;DHT22;6055;52.522;13.446;2022-10-03T12:17:42;16.20;99.90
11991;DHT22;6055;52.522;13.446;2022-10-03T12:20:22;16.20;99.90
11991;DHT22;6055;52.522;13.446;2022-10-03T12:22:54;16.10;99.90
11991;DHT22;6055;52.522;13.446;2022-10-03T12:25:33;16.20;99.90
11991;DHT22;6055;52.522;13.446;2022-10-03T12:28:21;17.30;99.90
11991;DHT22;6055;52.522;13.446;2022-10-03T12:33:58;18.80;99.90
11991;DHT22;6055;52.522;13.446;2022-10-03T12:39:35;19.00;99.90
11991;DHT22;6055;52.522;13.446;2022-10-03T12:45:12;19.70;99.90
11991;DHT22;6055;52.522;13.446;2022-10-03T12:48:16;19.80;99.90
11991;DHT22;6055;52.522;13.446;2022-10-03T12:51:09;19.50;99.90
11991;DHT22;6055;52.522;13.446;2022-10-03T12:57:01;17.70;99.90
11991;DHT22;6055;52.522;13.446;2022-10-03T12:59:34;17.40;99.90
11991;DHT22;6055;52.522;13.446;2022-10-03T13:02:20;17.50;99.90
11991;DHT22;6055;52.522;13.446;2022-10-03T13:07:45;19.10;99.90
11991;DHT22;6055;52.522;13.446;2022-10-03T13:10:31;19.70;99.90
11991;DHT22;6055;52.522;13.446;2022-10-03T13:13:02;19.70;99.90
11991;DHT22;6055;52.522;13.446;2022-10-03T13:15:41;19.70;99.90
11991;DHT22;6055;52.522;13.446;2022-10-03T13:20:38;19.10;99.90
11991;DHT22;6055;52.522;13.446;2022-10-03T13:23:23;19.00;99.90
11991;DHT22;6055;52.522;13.446;2022-10-03T13:26:15;19.00;99.90
11991;DHT22;6055;52.522;13.446;2022-10-03T13:31:45;18.50;99.90
11991;DHT22;6055;52.522;13.446;2022-10-03T13:34:18;18.00;99.90
11991;DHT22;6055;52.522;13.446;2022-10-03T13:36:58;17.90;99.90
11991;DHT22;6055;52.522;13.446;2022-10-03T13:39:46;17.90;99.90
11991;DHT22;6055;52.522;13.446;2022-10-03T13:45:04;17.20;99.90
11991;DHT22;6055;52.522;13.446;2022-10-03T13:47:43;16.90;99.90
11991;DHT22;6055;52.522;13.446;2022-10-03T13:50:16;16.90;99.90
11991;DHT22;6055;52.522;13.446;2022-10-03T13:53:10;16.60;99.90
11991;DHT22;6055;52.522;13.446;2022-10-03T13:55:53;16.50;99.90
11991;DHT22;6055;52.522;13.446;2022-10-03T13:58:43;17.20;99.90
11991;DHT22;6055;52.522;13.446;2022-10-03T14:04:22;16.70;99.90
11991;DHT22;6055;52.522;13.446;2022-10-03T14:07:11;16.40;99.90
11991;DHT22;6055;52.522;13.446;2022-10-03T14:15:28;17.40;99.90
11991;DHT22;6055;52.522;13.446;2022-10-03T14:18:18;17.50;99.90
11991;DHT22;6055;52.522;13.446;2022-10-03T14:23:40;18.10;99.90
11991;DHT22;6055;52.522;13.446;2022-10-03T14:26:33;18.20;99.90
11991;DHT22;6055;52.522;13.446;2022-10-03T14:31:47;18.00;99.90
11991;DHT22;6055;52.522;13.446;2022-10-03T14:34:34;17.70;99.90
11991;DHT22;6055;52.522;13.446;2022-10-03T14:37:20;17.00;99.90
11991;DHT22;6055;52.522;13.446;2022-10-03T14:40:07;16.70;99.90
11991;DHT22;6055;52.522;13.446;2022-10-03T14:45:44;16.50;99.90
11991;DHT22;6055;52.522;13.446;2022-10-03T14:48:18;16.60;99.90
11991;DHT22;6055;52.522;13.446;2022-10-03T14:50:48;16.50;99.90
11991;DHT22;6055;52.522;13.446;2022-10-03T14:53:23;16.50;99.90
11991;DHT22;6055;52.522;13.446;2022-10-03T14:55:59;16.50;99.90
11991;DHT22;6055;52.522;13.446;2022-10-03T14:58:54;16.50;99.90
11991;DHT22;6055;52.522;13.446;2022-10-03T15:01:22;16.40;99.90
11991;DHT22;6055;52.522;13.446;2022-10-03T15:06:33;16.20;99.90
11991;DHT22;6055;52.522;13.446;2022-10-03T15:09:26;16.20;99.90
11991;DHT22;6055;52.522;13.446;2022-10-03T15:12:08;16.10;99.90
11991;DHT22;6055;52.522;13.446;2022-10-03T15:14:41;16.10;99.90
11991;DHT22;6055;52.522;13.446;2022-10-03T15:17:20;16.00;99.90
11991;DHT22;6055;52.522;13.446;2022-10-03T15:19:54;16.00;99.90
11991;DHT22;6055;52.522;13.446;2022-10-03T15:22:29;15.90;99.90
11991;DHT22;6055;52.522;13.446;2022-10-03T15:25:11;15.90;99.90
11991;DHT22;6055;52.522;13.446;2022-10-03T15:27:42;15.90;99.90
11991;DHT22;6055;52.522;13.446;2022-10-03T15:30:29;15.80;99.90
11991;DHT22;6055;52.522;13.446;2022-10-03T15:35:50;15.80;99.90
11991;DHT22;6055;52.522;13.446;2022-10-03T15:38:25;15.80;99.90
11991;DHT22;6055;52.522;13.446;2022-10-03T15:44:31;15.70;99.90
11991;DHT22;6055;52.522;13.446;2022-10-03T15:47:14;15.50;99.90
11991;DHT22;6055;52.522;13.446;2022-10-03T15:49:53;15.50;99.90
11991;DHT22;6055;52.522;13.446;2022-10-03T15:52:34;15.50;99.90
11991;DHT22;6055;52.522;13.446;2022-10-03T15:55:05;15.50;99.90
11991;DHT22;6055;52.522;13.446;2022-10-03T15:57:41;15.40;99.90
11991;DHT22;6055;52.522;13.446;2022-10-03T16:00:21;15.50;99.90
11991;DHT22;6055;52.522;13.446;2022-10-03T16:03:39;15.40;99.90
11991;DHT22;6055;52.522;13.446;2022-10-03T16:05:50;15.40;99.90
11991;DHT22;6055;52.522;13.446;2022-10-03T16:08:20;15.30;99.90
11991;DHT22;6055;52.522;13.446;2022-10-03T16:11:06;15.30;99.90
11991;DHT22;6055;52.522;13.446;2022-10-03T16:13:45;15.40;99.90
11991;DHT22;6055;52.522;13.446;2022-10-03T16:16:16;15.30;99.90
11991;DHT22;6055;52.522;13.446;2022-10-03T16:18:50;15.30;99.90
11991;DHT22;6055;52.522;13.446;2022-10-03T16:21:43;15.30;99.90
11991;DHT22;6055;52.522;13.446;2022-10-03T16:24:20;15.30;99.90
11991;DHT22;6055;52.522;13.446;2022-10-03T16:26:58;15.30;99.90
11991;DHT22;6055;52.522;13.446;2022-10-03T16:29:30;15.20;99.90
11991;DHT22;6055;52.522;13.446;2022-10-03T16:32:13;15.20;99.90
11991;DHT22;6055;52.522;13.446;2022-10-03T16:34:43;15.20;99.90
11991;DHT22;6055;52.522;13.446;2022-10-03T16:37:26;15.20;99.90
11991;DHT22;6055;52.522;13.446;2022-10-03T16:40:04;15.10;99.90
11991;DHT22;6055;52.522;13.446;2022-10-03T16:42:43;15.10;99.90
11991;DHT22;6055;52.522;13.446;2022-10-03T16:45:23;15.10;99.90
11991;DHT22;6055;52.522;13.446;2022-10-03T16:47:51;15.00;99.90
11991;DHT22;6055;52.522;13.446;2022-10-03T16:50:45;15.00;99.90
11991;DHT22;6055;52.522;13.446;2022-10-03T16:53:14;15.00;99.90
11991;DHT22;6055;52.522;13.446;2022-10-03T16:55:49;15.00;99.90
11991;DHT22;6055;52.522;13.446;2022-10-03T17:03:19;14.90;99.90
11991;DHT22;6055;52.522;13.446;2022-10-03T17:05:46;14.90;99.90
11991;DHT22;6055;52.522;13.446;2022-10-03T17:08:14;14.90;99.90
11991;DHT22;6055;52.522;13.446;2022-10-03T17:10:42;14.80;99.90
11991;DHT22;6055;52.522;13.446;2022-10-03T17:13:17;14.80;99.90
11991;DHT22;6055;52.522;13.446;2022-10-03T17:15:49;14.80;99.90
11991;DHT22;6055;52.522;13.446;2022-10-03T17:19:26;14.70;99.90
11991;DHT22;6055;52.522;13.446;2022-10-03T17:21:28;14.70;99.90
11991;DHT22;6055;52.522;13.446;2022-10-03T17:24:10;14.70;99.90
11991;DHT22;6055;52.522;13.446;2022-10-03T17:26:41;14.60;99.90
11991;DHT22;6055;52.522;13.446;2022-10-03T17:29:34;14.60;99.90
11991;DHT22;6055;52.522;13.446;2022-10-03T17:32:24;14.60;99.90
11991;DHT22;6055;52.522;13.446;2022-10-03T17:40:25;14.50;99.90
11991;DHT22;6055;52.522;13.446;2022-10-03T17:42:59;14.40;99.90
11991;DHT22;6055;52.522;13.446;2022-10-03T17:45:43;14.40;99.90
11991;DHT22;6055;52.522;13.446;2022-10-03T17:48:22;14.40;99.90
11991;DHT22;6055;52.522;13.446;2022-10-03T17:53:50;14.30;99.90
11991;DHT22;6055;52.522;13.446;2022-10-03T17:56:19;14.30;99.90
11991;DHT22;6055;52.522;13.446;2022-10-03T17:59:10;14.30;99.90
11991;DHT22;6055;52.522;13.446;2022-10-03T18:01:47;14.30;99.90
11991;DHT22;6055;52.522;13.446;2022-10-03T18:04:19;14.20;99.90
11991;DHT22;6055;52.522;13.446;2022-10-03T18:06:55;14.20;99.90
11991;DHT22;6055;52.522;13.446;2022-10-03T18:11:54;14.20;99.90
11991;DHT22;6055;52.522;13.446;2022-10-03T18:14:37;14.20;99.90
11991;DHT22;6055;52.522;13.446;2022-10-03T18:17:15;14.20;99.90
11991;DHT22;6055;52.522;13.446;2022-10-03T18:22:43;14.20;99.90
11991;DHT22;6055;52.522;13.446;2022-10-03T18:28:20;14.20;99.90
11991;DHT22;6055;52.522;13.446;2022-10-03T18:30:55;14.20;99.90
11991;DHT22;6055;52.522;13.446;2022-10-03T18:33:31;14.10;99.90
11991;DHT22;6055;52.522;13.446;2022-10-03T18:36:09;14.10;99.90
11991;DHT22;6055;52.522;13.446;2022-10-03T18:38:37;14.10;99.90
11991;DHT22;6055;52.522;13.446;2022-10-03T18:41:05;14.20;99.90
11991;DHT22;6055;52.522;13.446;2022-10-03T18:43:38;14.10;99.90
11991;DHT22;6055;52.522;13.446;2022-10-03T18:46:18;14.10;99.90
11991;DHT22;6055;52.522;13.446;2022-10-03T18:48:56;14.10;99.90
11991;DHT22;6055;52.522;13.446;2022-10-03T18:51:29;14.00;99.90
11991;DHT22;6055;52.522;13.446;2022-10-03T18:56:42;13.90;99.90
11991;DHT22;6055;52.522;13.446;2022-10-03T18:59:14;13.90;99.90
11991;DHT22;6055;52.522;13.446;2022-10-03T19:01:58;13.90;99.90
11991;DHT22;6055;52.522;13.446;2022-10-03T19:04:54;13.80;99.90
11991;DHT22;6055;52.522;13.446;2022-10-03T19:07:23;13.80;99.90
11991;DHT22;6055;52.522;13.446;2022-10-03T19:12:33;13.80;99.90
11991;DHT22;6055;52.522;13.446;2022-10-03T19:15:36;13.80;99.90
11991;DHT22;6055;52.522;13.446;2022-10-03T19:18:18;13.80;99.90
11991;DHT22;6055;52.522;13.446;2022-10-03T19:20:49;13.80;99.90
11991;DHT22;6055;52.522;13.446;2022-10-03T19:23:28;13.70;99.90
11991;DHT22;6055;52.522;13.446;2022-10-03T19:26:06;13.70;99.90
11991;DHT22;6055;52.522;13.446;2022-10-03T19:28:48;13.70;99.90
11991;DHT22;6055;52.522;13.446;2022-10-03T19:31:30;13.70;99.90
11991;DHT22;6055;52.522;13.446;2022-10-03T19:34:04;13.70;99.90
11991;DHT22;6055;52.522;13.446;2022-10-03T19:36:33;13.70;99.90
11991;DHT22;6055;52.522;13.446;2022-10-03T19:39:03;13.70;99.90
11991;DHT22;6055;52.522;13.446;2022-10-03T19:41:36;13.70;99.90
11991;DHT22;6055;52.522;13.446;2022-10-03T19:44:12;13.60;99.90
11991;DHT22;6055;52.522;13.446;2022-10-03T19:46:56;13.60;99.90
11991;DHT22;6055;52.522;13.446;2022-10-03T19:49:44;13.60;99.90
11991;DHT22;6055;52.522;13.446;2022-10-03T19:52:23;13.50;99.90
11991;DHT22;6055;52.522;13.446;2022-10-03T19:54:59;13.50;99.90
11991;DHT22;6055;52.522;13.446;2022-10-03T19:57:51;13.50;99.90
11991;DHT22;6055;52.522;13.446;2022-10-03T20:00:20;13.50;99.90
11991;DHT22;6055;52.522;13.446;2022-10-03T20:03:16;13.50;99.90
11991;DHT22;6055;52.522;13.446;2022-10-03T20:06:01;13.50;99.90
11991;DHT22;6055;52.522;13.446;2022-10-03T20:08:33;13.60;99.90
11991;DHT22;6055;52.522;13.446;2022-10-03T20:11:24;13.60;99.90
11991;DHT22;6055;52.522;13.446;2022-10-03T20:13:53;13.50;99.90
11991;DHT22;6055;52.522;13.446;2022-10-03T20:16:22;13.60;99.90
11991;DHT22;6055;52.522;13.446;2022-10-03T20:18:51;13.70;99.90
11991;DHT22;6055;52.522;13.446;2022-10-03T20:21:25;13.70;99.90
11991;DHT22;6055;52.522;13.446;2022-10-03T20:23:52;13.60;99.90
11991;DHT22;6055;52.522;13.446;2022-10-03T20:26:49;13.60;99.90
11991;DHT22;6055;52.522;13.446;2022-10-03T20:29:30;13.60;99.90
11991;DHT22;6055;52.522;13.446;2022-10-03T20:31:59;13.60;99.90
11991;DHT22;6055;52.522;13.446;2022-10-03T20:34:25;13.50;99.90
11991;DHT22;6055;52.522;13.446;2022-10-03T20:36:56;13.50;99.90
11991;DHT22;6055;52.522;13.446;2022-10-03T20:39:31;13.60;99.90
11991;DHT22;6055;52.522;13.446;2022-10-03T20:42:08;13.50;99.90
11991;DHT22;6055;52.522;13.446;2022-10-03T20:53:10;13.60;99.90
11991;DHT22;6055;52.522;13.446;2022-10-03T20:55:45;13.60;99.90
11991;DHT22;6055;52.522;13.446;2022-10-03T20:58:30;13.60;99.90
11991;DHT22;6055;52.522;13.446;2022-10-03T21:06:27;13.50;99.90
11991;DHT22;6055;52.522;13.446;2022-10-03T21:08:55;13.50;99.90
11991;DHT22;6055;52.522;13.446;2022-10-03T21:11:27;13.50;99.90
11991;DHT22;6055;52.522;13.446;2022-10-03T21:14:14;13.50;99.90
11991;DHT22;6055;52.522;13.446;2022-10-03T21:16:47;13.50;99.90
11991;DHT22;6055;52.522;13.446;2022-10-03T21:22:00;13.50;99.90
11991;DHT22;6055;52.522;13.446;2022-10-03T21:27:12;13.50;99.90
11991;DHT22;6055;52.522;13.446;2022-10-03T21:29:40;13.50;99.90
11991;DHT22;6055;52.522;13.446;2022-10-03T21:32:12;13.50;99.90
11991;DHT22;6055;52.522;13.446;2022-10-03T21:35:20;13.50;99.90
11991;DHT22;6055;52.522;13.446;2022-10-03T21:38:01;13.50;99.90
11991;DHT22;6055;52.522;13.446;2022-10-03T21:46:53;13.50;99.90
11991;DHT22;6055;52.522;13.446;2022-10-03T21:49:25;13.50;99.90
11991;DHT22;6055;52.522;13.446;2022-10-03T21:52:12;13.50;99.90
11991;DHT22;6055;52.522;13.446;2022-10-03T21:55:01;13.50;99.90
11991;DHT22;6055;52.522;13.446;2022-10-03T21:57:55;13.50;99.90
11991;DHT22;6055;52.522;13.446;2022-10-03T22:00:26;13.50;99.90
11991;DHT22;6055;52.522;13.446;2022-10-03T22:03:12;13.40;99.90
11991;DHT22;6055;52.522;13.446;2022-10-03T22:08:34;13.40;99.90
11991;DHT22;6055;52.522;13.446;2022-10-03T22:11:06;13.40;99.90
11991;DHT22;6055;52.522;13.446;2022-10-03T22:13:36;13.40;99.90
11991;DHT22;6055;52.522;13.446;2022-10-03T22:16:13;13.40;99.90
11991;DHT22;6055;52.522;13.446;2022-10-03T22:21:44;13.50;99.90
11991;DHT22;6055;52.522;13.446;2022-10-03T22:24:28;13.50;99.90
11991;DHT22;6055;52.522;13.446;2022-10-03T22:27:15;13.50;99.90
11991;DHT22;6055;52.522;13.446;2022-10-03T22:30:05;13.50;99.90
11991;DHT22;6055;52.522;13.446;2022-10-03T22:38:00;13.40;99.90
11991;DHT22;6055;52.522;13.446;2022-10-03T22:40:26;13.40;99.90
11991;DHT22;6055;52.522;13.446;2022-10-03T22:42:54;13.50;99.90
11991;DHT22;6055;52.522;13.446;2022-10-03T22:45:24;13.40;99.90
11991;DHT22;6055;52.522;13.446;2022-10-03T22:47:54;13.40;99.90
11991;DHT22;6055;52.522;13.446;2022-10-03T22:50:27;13.40;99.90
11991;DHT22;6055;52.522;13.446;2022-10-03T22:52:54;13.40;99.90
11991;DHT22;6055;52.522;13.446;2022-10-03T22:55:23;13.40;99.90
11991;DHT22;6055;52.522;13.446;2022-10-03T22:57:50;13.40;99.90
11991;DHT22;6055;52.522;13.446;2022-10-03T23:00:28;13.40;99.90
11991;DHT22;6055;52.522;13.446;2022-10-03T23:03:21;13.40;99.90
11991;DHT22;6055;52.522;13.446;2022-10-03T23:09:06;13.40;99.90
11991;DHT22;6055;52.522;13.446;2022-10-03T23:11:36;13.40;99.90
11991;DHT22;6055;52.522;13.446;2022-10-03T23:14:14;13.40;99.90
11991;DHT22;6055;52.522;13.446;2022-10-03T23:17:09;13.40;99.90
11991;DHT22;6055;52.522;13.446;2022-10-03T23:22:15;13.40;99.90
11991;DHT22;6055;52.522;13.446;2022-10-03T23:24:58;13.40;99.90
11991;DHT22;6055;52.522;13.446;2022-10-03T23:35:15;13.40;99.90
11991;DHT22;6055;52.522;13.446;2022-10-03T23:37:45;13.40;99.90
11991;DHT22;6055;52.522;13.446;2022-10-03T23:40:19;13.30;99.90
11991;DHT22;6055;52.522;13.446;2022-10-03T23:43:44;13.30;99.90
11991;DHT22;6055;52.522;13.446;2022-10-03T23:45:44;13.30;99.90
11991;DHT22;6055;52.522;13.446;2022-10-03T23:48:15;13.30;99.90
11991;DHT22;6055;52.522;13.446;2022-10-03T23:50:46;13.30;99.90
11991;DHT22;6055;52.522;13.446;2022-10-03T23:53:32;13.30;99.90
11991;DHT22;6055;52.522;13.446;2022-10-03T23:56:00;13.30;99.90
11991;DHT22;6055;52.522;13.446;2022-10-03T23:58:31;13.30;99.90
